sensor_id;sensor_type;location;lat;lon;timestamp;P1;durP1;ratioP1;P2;durP2;ratioP2
9370;SDS011;4725;48.384;8.984;2022-10-16T00:00:36;2.50;;;1.30;;
9370;SDS011;4725;48.384;8.984;2022-10-16T00:03:04;2.17;;;1.10;;
9370;SDS011;4725;48.384;8.984;2022-10-16T00:05:31;3.40;;;1.37;;
9370;SDS011;4725;48.384;8.984;2022-10-16T00:07:58;3.67;;;1.10;;
9370;SDS011;4725;48.384;8.984;2022-10-16T00:10:25;2.50;;;1.20;;
9370;SDS011;4725;48.384;8.984;2022-10-16T00:12:54;4.40;;;1.17;;
9370;SDS011;4725;48.384;8.984;2022-10-16T00:15:21;2.57;;;1.67;;
9370;SDS011;4725;48.384;8.984;2022-10-16T00:17:48;1.10;;;1.00;;
9370;SDS011;4725;48.384;8.984;2022-10-16T00:20:14;1.93;;;1.03;;
9370;SDS011;4725;48.384;8.984;2022-10-16T00:22:42;3.30;;;1.00;;
9370;SDS011;4725;48.384;8.984;2022-10-16T00:25:08;1.23;;;0.90;;
9370;SDS011;4725;48.384;8.984;2022-10-16T00:27:35;1.93;;;0.97;;
9370;SDS011;4725;48.384;8.984;2022-10-16T00:30:05;0.80;;;0.80;;
9370;SDS011;4725;48.384;8.984;2022-10-16T00:32:33;2.33;;;1.00;;
9370;SDS011;4725;48.384;8.984;2022-10-16T00:35:00;1.10;;;1.00;;
9370;SDS011;4725;48.384;8.984;2022-10-16T00:37:28;2.83;;;0.90;;
9370;SDS011;4725;48.384;8.984;2022-10-16T00:39:56;4.57;;;1.87;;
9370;SDS011;4725;48.384;8.984;2022-10-16T00:42:23;2.97;;;0.70;;
9370;SDS011;4725;48.384;8.984;2022-10-16T00:44:50;1.23;;;1.00;;
9370;SDS011;4725;48.384;8.984;2022-10-16T00:47:21;3.13;;;1.10;;
9370;SDS011;4725;48.384;8.984;2022-10-16T00:49:52;2.40;;;1.00;;
9370;SDS011;4725;48.384;8.984;2022-10-16T00:52:22;1.20;;;1.10;;
9370;SDS011;4725;48.384;8.984;2022-10-16T00:54:49;2.30;;;0.90;;
9370;SDS011;4725;48.384;8.984;2022-10-16T00:57:18;2.40;;;1.00;;
9370;SDS011;4725;48.384;8.984;2022-10-16T00:59:45;1.83;;;1.00;;
9370;SDS011;4725;48.384;8.984;2022-10-16T01:02:13;0.73;;;0.73;;
9370;SDS011;4725;48.384;8.984;2022-10-16T01:04:43;3.30;;;1.00;;
9370;SDS011;4725;48.384;8.984;2022-10-16T01:07:14;2.63;;;1.03;;
9370;SDS011;4725;48.384;8.984;2022-10-16T01:09:55;3.87;;;1.00;;
9370;SDS011;4725;48.384;8.984;2022-10-16T01:12:31;1.37;;;1.00;;
9370;SDS011;4725;48.384;8.984;2022-10-16T01:15:04;5.77;;;0.87;;
9370;SDS011;4725;48.384;8.984;2022-10-16T01:17:39;2.23;;;0.90;;
9370;SDS011;4725;48.384;8.984;2022-10-16T01:20:14;2.43;;;1.20;;
9370;SDS011;4725;48.384;8.984;2022-10-16T01:22:50;17.60;;;1.20;;
9370;SDS011;4725;48.384;8.984;2022-10-16T01:25:30;4.70;;;0.90;;
9370;SDS011;4725;48.384;8.984;2022-10-16T01:28:15;3.67;;;0.93;;
9370;SDS011;4725;48.384;8.984;2022-10-16T01:30:43;1.00;;;0.90;;
9370;SDS011;4725;48.384;8.984;2022-10-16T01:33:14;2.30;;;0.90;;
9370;SDS011;4725;48.384;8.984;2022-10-16T01:35:46;0.97;;;0.90;;
9370;SDS011;4725;48.384;8.984;2022-10-16T01:38:19;1.73;;;1.20;;
9370;SDS011;4725;48.384;8.984;2022-10-16T01:40:50;1.20;;;0.80;;
9370;SDS011;4725;48.384;8.984;2022-10-16T01:43:24;0.77;;;0.77;;
9370;SDS011;4725;48.384;8.984;2022-10-16T01:45:55;2.93;;;1.10;;
9370;SDS011;4725;48.384;8.984;2022-10-16T01:48:23;1.10;;;1.00;;
9370;SDS011;4725;48.384;8.984;2022-10-16T01:50:54;1.90;;;1.23;;
9370;SDS011;4725;48.384;8.984;2022-10-16T01:53:24;2.73;;;0.90;;
9370;SDS011;4725;48.384;8.984;2022-10-16T01:55:53;4.07;;;1.03;;
9370;SDS011;4725;48.384;8.984;2022-10-16T01:58:24;1.57;;;0.90;;
9370;SDS011;4725;48.384;8.984;2022-10-16T02:00:55;2.83;;;0.90;;
9370;SDS011;4725;48.384;8.984;2022-10-16T02:03:23;2.17;;;0.83;;
9370;SDS011;4725;48.384;8.984;2022-10-16T02:05:50;0.97;;;0.97;;
9370;SDS011;4725;48.384;8.984;2022-10-16T02:08:19;2.20;;;1.53;;
9370;SDS011;4725;48.384;8.984;2022-10-16T02:10:49;1.47;;;0.90;;
9370;SDS011;4725;48.384;8.984;2022-10-16T02:13:17;1.57;;;1.10;;
9370;SDS011;4725;48.384;8.984;2022-10-16T02:15:49;12.03;;;1.17;;
9370;SDS011;4725;48.384;8.984;2022-10-16T02:18:16;2.63;;;1.00;;
9370;SDS011;4725;48.384;8.984;2022-10-16T02:20:50;3.60;;;0.90;;
9370;SDS011;4725;48.384;8.984;2022-10-16T02:23:22;3.70;;;0.93;;
9370;SDS011;4725;48.384;8.984;2022-10-16T02:25:59;5.53;;;1.43;;
9370;SDS011;4725;48.384;8.984;2022-10-16T02:28:34;8.43;;;1.13;;
9370;SDS011;4725;48.384;8.984;2022-10-16T02:31:08;2.53;;;1.10;;
9370;SDS011;4725;48.384;8.984;2022-10-16T02:33:38;1.27;;;1.13;;
9370;SDS011;4725;48.384;8.984;2022-10-16T02:36:06;1.60;;;1.10;;
9370;SDS011;4725;48.384;8.984;2022-10-16T02:38:34;3.33;;;1.17;;
9370;SDS011;4725;48.384;8.984;2022-10-16T02:41:03;0.90;;;0.90;;
9370;SDS011;4725;48.384;8.984;2022-10-16T02:43:30;0.90;;;0.83;;
9370;SDS011;4725;48.384;8.984;2022-10-16T02:45:58;1.63;;;1.10;;
9370;SDS011;4725;48.384;8.984;2022-10-16T02:48:26;2.20;;;1.10;;
9370;SDS011;4725;48.384;8.984;2022-10-16T02:50:53;3.07;;;0.83;;
9370;SDS011;4725;48.384;8.984;2022-10-16T02:53:20;3.00;;;0.90;;
9370;SDS011;4725;48.384;8.984;2022-10-16T02:55:47;1.53;;;1.00;;
9370;SDS011;4725;48.384;8.984;2022-10-16T02:58:14;8.03;;;1.03;;
9370;SDS011;4725;48.384;8.984;2022-10-16T03:00:41;0.87;;;0.80;;
9370;SDS011;4725;48.384;8.984;2022-10-16T03:03:08;5.00;;;0.97;;
9370;SDS011;4725;48.384;8.984;2022-10-16T03:05:36;2.33;;;1.17;;
9370;SDS011;4725;48.384;8.984;2022-10-16T03:08:03;1.83;;;1.10;;
9370;SDS011;4725;48.384;8.984;2022-10-16T03:10:30;5.10;;;2.30;;
9370;SDS011;4725;48.384;8.984;2022-10-16T03:12:57;5.93;;;1.00;;
9370;SDS011;4725;48.384;8.984;2022-10-16T03:15:24;3.13;;;1.20;;
9370;SDS011;4725;48.384;8.984;2022-10-16T03:17:53;4.23;;;1.50;;
9370;SDS011;4725;48.384;8.984;2022-10-16T03:20:20;3.90;;;1.10;;
9370;SDS011;4725;48.384;8.984;2022-10-16T03:22:48;1.40;;;1.00;;
9370;SDS011;4725;48.384;8.984;2022-10-16T03:25:15;3.90;;;1.10;;
9370;SDS011;4725;48.384;8.984;2022-10-16T03:27:42;1.30;;;1.10;;
9370;SDS011;4725;48.384;8.984;2022-10-16T03:30:09;3.47;;;1.43;;
9370;SDS011;4725;48.384;8.984;2022-10-16T03:32:37;2.77;;;1.27;;
9370;SDS011;4725;48.384;8.984;2022-10-16T03:35:04;1.00;;;1.00;;
9370;SDS011;4725;48.384;8.984;2022-10-16T03:37:32;1.93;;;1.20;;
9370;SDS011;4725;48.384;8.984;2022-10-16T03:40:00;4.60;;;1.10;;
9370;SDS011;4725;48.384;8.984;2022-10-16T03:42:27;1.07;;;1.00;;
9370;SDS011;4725;48.384;8.984;2022-10-16T03:44:54;2.30;;;1.10;;
9370;SDS011;4725;48.384;8.984;2022-10-16T03:47:21;1.17;;;1.03;;
9370;SDS011;4725;48.384;8.984;2022-10-16T03:49:48;1.40;;;1.10;;
9370;SDS011;4725;48.384;8.984;2022-10-16T03:52:16;3.07;;;1.00;;
9370;SDS011;4725;48.384;8.984;2022-10-16T03:54:43;4.50;;;0.90;;
9370;SDS011;4725;48.384;8.984;2022-10-16T03:57:11;2.73;;;1.03;;
9370;SDS011;4725;48.384;8.984;2022-10-16T03:59:38;0.90;;;0.90;;
9370;SDS011;4725;48.384;8.984;2022-10-16T04:02:05;3.33;;;1.17;;
9370;SDS011;4725;48.384;8.984;2022-10-16T04:04:32;1.80;;;1.20;;
9370;SDS011;4725;48.384;8.984;2022-10-16T04:06:59;11.73;;;1.30;;
9370;SDS011;4725;48.384;8.984;2022-10-16T04:09:26;1.53;;;1.13;;
9370;SDS011;4725;48.384;8.984;2022-10-16T04:11:53;10.87;;;1.63;;
9370;SDS011;4725;48.384;8.984;2022-10-16T04:14:21;4.83;;;1.27;;
9370;SDS011;4725;48.384;8.984;2022-10-16T04:16:48;2.30;;;1.43;;
9370;SDS011;4725;48.384;8.984;2022-10-16T04:19:15;4.00;;;1.47;;
9370;SDS011;4725;48.384;8.984;2022-10-16T04:21:42;2.57;;;0.97;;
9370;SDS011;4725;48.384;8.984;2022-10-16T04:24:09;3.53;;;1.30;;
9370;SDS011;4725;48.384;8.984;2022-10-16T04:26:36;15.07;;;1.30;;
9370;SDS011;4725;48.384;8.984;2022-10-16T04:29:04;2.00;;;1.10;;
9370;SDS011;4725;48.384;8.984;2022-10-16T04:31:33;1.10;;;1.00;;
9370;SDS011;4725;48.384;8.984;2022-10-16T04:34:00;2.13;;;0.97;;
9370;SDS011;4725;48.384;8.984;2022-10-16T04:36:27;1.23;;;1.13;;
9370;SDS011;4725;48.384;8.984;2022-10-16T04:38:54;1.10;;;1.00;;
9370;SDS011;4725;48.384;8.984;2022-10-16T04:41:21;13.00;;;1.57;;
9370;SDS011;4725;48.384;8.984;2022-10-16T04:43:48;2.77;;;1.20;;
9370;SDS011;4725;48.384;8.984;2022-10-16T04:46:15;0.90;;;0.90;;
9370;SDS011;4725;48.384;8.984;2022-10-16T04:48:43;1.30;;;1.10;;
9370;SDS011;4725;48.384;8.984;2022-10-16T04:51:12;1.93;;;1.20;;
9370;SDS011;4725;48.384;8.984;2022-10-16T04:53:39;1.60;;;0.97;;
9370;SDS011;4725;48.384;8.984;2022-10-16T04:56:06;3.43;;;1.10;;
9370;SDS011;4725;48.384;8.984;2022-10-16T04:58:33;1.43;;;1.20;;
9370;SDS011;4725;48.384;8.984;2022-10-16T05:01:00;2.33;;;1.13;;
9370;SDS011;4725;48.384;8.984;2022-10-16T05:03:27;2.60;;;0.90;;
9370;SDS011;4725;48.384;8.984;2022-10-16T05:05:55;5.23;;;1.33;;
9370;SDS011;4725;48.384;8.984;2022-10-16T05:08:22;3.57;;;1.10;;
9370;SDS011;4725;48.384;8.984;2022-10-16T05:10:49;2.40;;;1.10;;
9370;SDS011;4725;48.384;8.984;2022-10-16T05:13:16;1.57;;;1.30;;
9370;SDS011;4725;48.384;8.984;2022-10-16T05:15:46;1.63;;;1.13;;
9370;SDS011;4725;48.384;8.984;2022-10-16T05:18:14;1.67;;;1.30;;
9370;SDS011;4725;48.384;8.984;2022-10-16T05:20:41;1.10;;;1.03;;
9370;SDS011;4725;48.384;8.984;2022-10-16T05:23:10;2.83;;;1.30;;
9370;SDS011;4725;48.384;8.984;2022-10-16T05:25:37;3.00;;;1.37;;
9370;SDS011;4725;48.384;8.984;2022-10-16T05:28:04;1.97;;;1.20;;
9370;SDS011;4725;48.384;8.984;2022-10-16T05:30:31;1.37;;;1.27;;
9370;SDS011;4725;48.384;8.984;2022-10-16T05:32:58;2.17;;;1.33;;
9370;SDS011;4725;48.384;8.984;2022-10-16T05:35:25;1.60;;;1.20;;
9370;SDS011;4725;48.384;8.984;2022-10-16T05:37:52;2.67;;;1.37;;
9370;SDS011;4725;48.384;8.984;2022-10-16T05:40:20;6.17;;;1.30;;
9370;SDS011;4725;48.384;8.984;2022-10-16T05:42:47;2.27;;;1.30;;
9370;SDS011;4725;48.384;8.984;2022-10-16T05:45:14;1.93;;;1.30;;
9370;SDS011;4725;48.384;8.984;2022-10-16T05:47:41;4.93;;;1.00;;
9370;SDS011;4725;48.384;8.984;2022-10-16T05:50:08;2.50;;;1.40;;
9370;SDS011;4725;48.384;8.984;2022-10-16T05:52:35;3.13;;;1.10;;
9370;SDS011;4725;48.384;8.984;2022-10-16T05:55:02;1.10;;;1.00;;
9370;SDS011;4725;48.384;8.984;2022-10-16T05:57:31;3.03;;;1.10;;
9370;SDS011;4725;48.384;8.984;2022-10-16T05:59:58;4.07;;;1.50;;
9370;SDS011;4725;48.384;8.984;2022-10-16T06:02:25;1.03;;;1.03;;
9370;SDS011;4725;48.384;8.984;2022-10-16T06:04:52;2.47;;;1.43;;
9370;SDS011;4725;48.384;8.984;2022-10-16T06:07:19;1.63;;;1.27;;
9370;SDS011;4725;48.384;8.984;2022-10-16T06:09:47;2.67;;;1.60;;
9370;SDS011;4725;48.384;8.984;2022-10-16T06:12:15;1.80;;;1.40;;
9370;SDS011;4725;48.384;8.984;2022-10-16T06:14:43;2.43;;;1.80;;
9370;SDS011;4725;48.384;8.984;2022-10-16T06:17:11;2.87;;;1.80;;
9370;SDS011;4725;48.384;8.984;2022-10-16T06:19:38;4.40;;;1.70;;
9370;SDS011;4725;48.384;8.984;2022-10-16T06:22:06;2.07;;;1.60;;
9370;SDS011;4725;48.384;8.984;2022-10-16T06:24:33;1.30;;;1.20;;
9370;SDS011;4725;48.384;8.984;2022-10-16T06:27:00;10.80;;;2.03;;
9370;SDS011;4725;48.384;8.984;2022-10-16T06:29:27;1.87;;;1.20;;
9370;SDS011;4725;48.384;8.984;2022-10-16T06:31:55;1.48;;;1.17;;
9370;SDS011;4725;48.384;8.984;2022-10-16T06:34:22;1.33;;;1.20;;
9370;SDS011;4725;48.384;8.984;2022-10-16T06:36:49;2.55;;;1.38;;
9370;SDS011;4725;48.384;8.984;2022-10-16T06:39:16;2.30;;;1.40;;
9370;SDS011;4725;48.384;8.984;2022-10-16T06:41:43;4.30;;;1.20;;
9370;SDS011;4725;48.384;8.984;2022-10-16T06:44:10;1.38;;;1.08;;
9370;SDS011;4725;48.384;8.984;2022-10-16T06:46:37;2.65;;;1.38;;
9370;SDS011;4725;48.384;8.984;2022-10-16T06:49:05;1.13;;;1.02;;
9370;SDS011;4725;48.384;8.984;2022-10-16T06:51:32;3.33;;;1.10;;
9370;SDS011;4725;48.384;8.984;2022-10-16T06:54:01;1.65;;;1.17;;
9370;SDS011;4725;48.384;8.984;2022-10-16T06:56:29;6.93;;;1.17;;
9370;SDS011;4725;48.384;8.984;2022-10-16T06:58:56;1.85;;;1.00;;
9370;SDS011;4725;48.384;8.984;2022-10-16T07:01:24;5.95;;;1.35;;
9370;SDS011;4725;48.384;8.984;2022-10-16T07:03:52;4.18;;;1.40;;
9370;SDS011;4725;48.384;8.984;2022-10-16T07:06:23;1.30;;;1.20;;
9370;SDS011;4725;48.384;8.984;2022-10-16T07:08:51;1.85;;;1.20;;
9370;SDS011;4725;48.384;8.984;2022-10-16T07:11:19;3.42;;;1.00;;
9370;SDS011;4725;48.384;8.984;2022-10-16T07:13:47;5.10;;;1.30;;
9370;SDS011;4725;48.384;8.984;2022-10-16T07:16:15;5.30;;;1.25;;
9370;SDS011;4725;48.384;8.984;2022-10-16T07:18:43;1.30;;;1.20;;
9370;SDS011;4725;48.384;8.984;2022-10-16T07:21:12;1.10;;;1.00;;
9370;SDS011;4725;48.384;8.984;2022-10-16T07:23:42;2.28;;;1.60;;
9370;SDS011;4725;48.384;8.984;2022-10-16T07:26:09;12.63;;;1.30;;
9370;SDS011;4725;48.384;8.984;2022-10-16T07:28:37;4.72;;;1.30;;
9370;SDS011;4725;48.384;8.984;2022-10-16T07:31:05;10.13;;;1.42;;
9370;SDS011;4725;48.384;8.984;2022-10-16T07:33:35;1.58;;;1.13;;
9370;SDS011;4725;48.384;8.984;2022-10-16T07:36:03;1.35;;;1.10;;
9370;SDS011;4725;48.384;8.984;2022-10-16T07:38:31;4.40;;;1.40;;
9370;SDS011;4725;48.384;8.984;2022-10-16T07:41:00;3.05;;;1.20;;
9370;SDS011;4725;48.384;8.984;2022-10-16T07:43:28;1.42;;;1.10;;
9370;SDS011;4725;48.384;8.984;2022-10-16T07:45:56;2.08;;;1.00;;
9370;SDS011;4725;48.384;8.984;2022-10-16T07:48:23;2.22;;;1.38;;
9370;SDS011;4725;48.384;8.984;2022-10-16T07:50:56;2.25;;;1.38;;
9370;SDS011;4725;48.384;8.984;2022-10-16T07:53:24;4.45;;;1.45;;
9370;SDS011;4725;48.384;8.984;2022-10-16T07:55:51;3.38;;;1.38;;
9370;SDS011;4725;48.384;8.984;2022-10-16T07:58:20;7.05;;;1.38;;
9370;SDS011;4725;48.384;8.984;2022-10-16T08:00:46;9.20;;;1.33;;
9370;SDS011;4725;48.384;8.984;2022-10-16T08:03:13;5.20;;;1.27;;
9370;SDS011;4725;48.384;8.984;2022-10-16T08:05:40;3.90;;;1.20;;
9370;SDS011;4725;48.384;8.984;2022-10-16T08:08:11;1.95;;;1.10;;
9370;SDS011;4725;48.384;8.984;2022-10-16T08:10:39;3.22;;;2.08;;
9370;SDS011;4725;48.384;8.984;2022-10-16T08:13:06;2.35;;;1.27;;
9370;SDS011;4725;48.384;8.984;2022-10-16T08:15:35;6.65;;;1.42;;
9370;SDS011;4725;48.384;8.984;2022-10-16T08:18:02;3.08;;;1.13;;
9370;SDS011;4725;48.384;8.984;2022-10-16T08:20:31;2.53;;;1.00;;
9370;SDS011;4725;48.384;8.984;2022-10-16T08:22:59;4.85;;;1.08;;
9370;SDS011;4725;48.384;8.984;2022-10-16T08:25:27;1.30;;;1.20;;
9370;SDS011;4725;48.384;8.984;2022-10-16T08:27:54;3.50;;;1.25;;
9370;SDS011;4725;48.384;8.984;2022-10-16T08:30:22;1.95;;;1.20;;
9370;SDS011;4725;48.384;8.984;2022-10-16T08:32:51;2.47;;;1.23;;
9370;SDS011;4725;48.384;8.984;2022-10-16T08:35:18;1.88;;;1.25;;
9370;SDS011;4725;48.384;8.984;2022-10-16T08:37:45;3.72;;;1.20;;
9370;SDS011;4725;48.384;8.984;2022-10-16T08:40:16;1.48;;;1.20;;
9370;SDS011;4725;48.384;8.984;2022-10-16T08:43:08;2.42;;;1.30;;
9370;SDS011;4725;48.384;8.984;2022-10-16T08:46:04;3.50;;;1.40;;
9370;SDS011;4725;48.384;8.984;2022-10-16T08:48:48;2.28;;;1.35;;
9370;SDS011;4725;48.384;8.984;2022-10-16T08:51:18;6.18;;;1.75;;
9370;SDS011;4725;48.384;8.984;2022-10-16T08:53:49;5.07;;;1.52;;
9370;SDS011;4725;48.384;8.984;2022-10-16T08:56:21;1.67;;;1.30;;
9370;SDS011;4725;48.384;8.984;2022-10-16T08:58:48;3.35;;;1.40;;
9370;SDS011;4725;48.384;8.984;2022-10-16T09:01:17;1.92;;;1.75;;
9370;SDS011;4725;48.384;8.984;2022-10-16T09:06:50;1.45;;;1.35;;
9370;SDS011;4725;48.384;8.984;2022-10-16T09:12:21;4.35;;;1.58;;
9370;SDS011;4725;48.384;8.984;2022-10-16T09:14:57;1.40;;;1.27;;
9370;SDS011;4725;48.384;8.984;2022-10-16T09:17:36;4.25;;;1.60;;
9370;SDS011;4725;48.384;8.984;2022-10-16T09:20:14;3.00;;;1.98;;
9370;SDS011;4725;48.384;8.984;2022-10-16T09:22:48;3.88;;;1.80;;
9370;SDS011;4725;48.384;8.984;2022-10-16T09:25:15;3.58;;;1.50;;
9370;SDS011;4725;48.384;8.984;2022-10-16T09:27:47;5.03;;;1.30;;
9370;SDS011;4725;48.384;8.984;2022-10-16T09:30:18;2.10;;;1.33;;
9370;SDS011;4725;48.384;8.984;2022-10-16T09:32:47;2.13;;;1.20;;
9370;SDS011;4725;48.384;8.984;2022-10-16T09:35:17;1.23;;;1.00;;
9370;SDS011;4725;48.384;8.984;2022-10-16T09:37:48;2.78;;;1.38;;
9370;SDS011;4725;48.384;8.984;2022-10-16T09:40:24;4.13;;;1.38;;
9370;SDS011;4725;48.384;8.984;2022-10-16T09:42:54;1.38;;;1.23;;
9370;SDS011;4725;48.384;8.984;2022-10-16T09:45:27;1.25;;;1.13;;
9370;SDS011;4725;48.384;8.984;2022-10-16T09:47:54;4.55;;;1.33;;
9370;SDS011;4725;48.384;8.984;2022-10-16T09:50:22;1.52;;;1.30;;
9370;SDS011;4725;48.384;8.984;2022-10-16T09:53:03;0.90;;;0.90;;
9370;SDS011;4725;48.384;8.984;2022-10-16T09:55:31;1.75;;;1.20;;
9370;SDS011;4725;48.384;8.984;2022-10-16T09:57:58;1.98;;;1.00;;
9370;SDS011;4725;48.384;8.984;2022-10-16T10:00:25;4.07;;;1.58;;
9370;SDS011;4725;48.384;8.984;2022-10-16T10:02:52;1.42;;;1.05;;
9370;SDS011;4725;48.384;8.984;2022-10-16T10:05:21;1.67;;;1.25;;
9370;SDS011;4725;48.384;8.984;2022-10-16T10:07:53;2.20;;;1.05;;
9370;SDS011;4725;48.384;8.984;2022-10-16T10:10:24;4.45;;;1.70;;
9370;SDS011;4725;48.384;8.984;2022-10-16T10:12:53;1.10;;;1.10;;
9370;SDS011;4725;48.384;8.984;2022-10-16T10:15:21;1.33;;;1.10;;
9370;SDS011;4725;48.384;8.984;2022-10-16T10:17:52;1.65;;;1.10;;
9370;SDS011;4725;48.384;8.984;2022-10-16T10:20:25;1.50;;;1.08;;
9370;SDS011;4725;48.384;8.984;2022-10-16T10:22:53;1.45;;;1.35;;
9370;SDS011;4725;48.384;8.984;2022-10-16T10:25:29;2.53;;;1.30;;
9370;SDS011;4725;48.384;8.984;2022-10-16T10:31:20;9.10;;;1.35;;
9370;SDS011;4725;48.384;8.984;2022-10-16T10:33:50;3.83;;;1.33;;
9370;SDS011;4725;48.384;8.984;2022-10-16T10:36:28;4.70;;;1.48;;
9370;SDS011;4725;48.384;8.984;2022-10-16T10:38:59;2.45;;;1.10;;
9370;SDS011;4725;48.384;8.984;2022-10-16T10:44:43;1.60;;;1.20;;
9370;SDS011;4725;48.384;8.984;2022-10-16T10:47:25;1.55;;;1.40;;
9370;SDS011;4725;48.384;8.984;2022-10-16T10:50:12;4.38;;;1.42;;
9370;SDS011;4725;48.384;8.984;2022-10-16T10:52:51;2.20;;;1.30;;
9370;SDS011;4725;48.384;8.984;2022-10-16T10:55:26;1.25;;;1.15;;
9370;SDS011;4725;48.384;8.984;2022-10-16T10:58:15;1.30;;;1.20;;
9370;SDS011;4725;48.384;8.984;2022-10-16T11:01:04;4.53;;;1.30;;
9370;SDS011;4725;48.384;8.984;2022-10-16T11:03:41;1.25;;;1.20;;
9370;SDS011;4725;48.384;8.984;2022-10-16T11:06:19;5.85;;;1.40;;
9370;SDS011;4725;48.384;8.984;2022-10-16T11:08:51;3.50;;;1.50;;
9370;SDS011;4725;48.384;8.984;2022-10-16T11:11:23;1.17;;;1.13;;
9370;SDS011;4725;48.384;8.984;2022-10-16T11:13:58;5.25;;;1.40;;
9370;SDS011;4725;48.384;8.984;2022-10-16T11:16:29;1.95;;;1.30;;
9370;SDS011;4725;48.384;8.984;2022-10-16T11:18:59;1.52;;;1.42;;
9370;SDS011;4725;48.384;8.984;2022-10-16T11:21:36;1.30;;;1.20;;
9370;SDS011;4725;48.384;8.984;2022-10-16T11:24:14;3.63;;;1.35;;
9370;SDS011;4725;48.384;8.984;2022-10-16T11:26:47;1.33;;;1.23;;
9370;SDS011;4725;48.384;8.984;2022-10-16T11:29:19;4.80;;;1.65;;
9370;SDS011;4725;48.384;8.984;2022-10-16T11:31:50;2.13;;;1.60;;
9370;SDS011;4725;48.384;8.984;2022-10-16T11:34:22;1.50;;;1.30;;
9370;SDS011;4725;48.384;8.984;2022-10-16T11:36:56;3.58;;;1.42;;
9370;SDS011;4725;48.384;8.984;2022-10-16T11:39:29;1.60;;;1.50;;
9370;SDS011;4725;48.384;8.984;2022-10-16T11:41:59;3.72;;;1.23;;
9370;SDS011;4725;48.384;8.984;2022-10-16T11:44:35;2.92;;;1.70;;
9370;SDS011;4725;48.384;8.984;2022-10-16T11:47:19;1.67;;;1.20;;
9370;SDS011;4725;48.384;8.984;2022-10-16T11:49:53;2.72;;;1.60;;
9370;SDS011;4725;48.384;8.984;2022-10-16T11:52:25;3.67;;;1.35;;
9370;SDS011;4725;48.384;8.984;2022-10-16T11:55:01;1.25;;;1.10;;
9370;SDS011;4725;48.384;8.984;2022-10-16T11:57:35;3.50;;;1.30;;
9370;SDS011;4725;48.384;8.984;2022-10-16T12:00:14;2.17;;;1.50;;
9370;SDS011;4725;48.384;8.984;2022-10-16T12:02:54;3.03;;;1.40;;
9370;SDS011;4725;48.384;8.984;2022-10-16T12:05:29;3.47;;;1.38;;
9370;SDS011;4725;48.384;8.984;2022-10-16T12:08:09;3.83;;;1.75;;
9370;SDS011;4725;48.384;8.984;2022-10-16T12:10:39;4.90;;;1.80;;
9370;SDS011;4725;48.384;8.984;2022-10-16T12:16:05;1.40;;;1.30;;
9370;SDS011;4725;48.384;8.984;2022-10-16T12:18:45;1.80;;;1.35;;
9370;SDS011;4725;48.384;8.984;2022-10-16T12:21:13;6.43;;;1.80;;
9370;SDS011;4725;48.384;8.984;2022-10-16T12:23:46;3.33;;;1.65;;
9370;SDS011;4725;48.384;8.984;2022-10-16T12:26:23;3.15;;;1.77;;
9370;SDS011;4725;48.384;8.984;2022-10-16T12:28:51;2.10;;;1.63;;
9370;SDS011;4725;48.384;8.984;2022-10-16T12:31:20;1.92;;;1.67;;
9370;SDS011;4725;48.384;8.984;2022-10-16T12:33:54;10.25;;;1.70;;
9370;SDS011;4725;48.384;8.984;2022-10-16T12:36:27;2.35;;;1.63;;
9370;SDS011;4725;48.384;8.984;2022-10-16T12:38:57;1.40;;;1.30;;
9370;SDS011;4725;48.384;8.984;2022-10-16T12:41:25;2.35;;;1.48;;
9370;SDS011;4725;48.384;8.984;2022-10-16T12:43:53;3.13;;;1.70;;
9370;SDS011;4725;48.384;8.984;2022-10-16T12:46:23;2.00;;;1.60;;
9370;SDS011;4725;48.384;8.984;2022-10-16T12:49:05;2.38;;;1.80;;
9370;SDS011;4725;48.384;8.984;2022-10-16T12:51:46;8.80;;;1.58;;
9370;SDS011;4725;48.384;8.984;2022-10-16T12:54:13;1.50;;;1.40;;
9370;SDS011;4725;48.384;8.984;2022-10-16T12:56:46;2.15;;;1.40;;
9370;SDS011;4725;48.384;8.984;2022-10-16T12:59:25;3.28;;;1.45;;
9370;SDS011;4725;48.384;8.984;2022-10-16T13:02:14;2.85;;;1.38;;
9370;SDS011;4725;48.384;8.984;2022-10-16T13:05:16;3.20;;;1.80;;
9370;SDS011;4725;48.384;8.984;2022-10-16T13:07:53;1.92;;;1.70;;
9370;SDS011;4725;48.384;8.984;2022-10-16T13:10:30;5.10;;;1.77;;
9370;SDS011;4725;48.384;8.984;2022-10-16T13:16:12;2.85;;;1.70;;
9370;SDS011;4725;48.384;8.984;2022-10-16T13:18:52;1.80;;;1.42;;
9370;SDS011;4725;48.384;8.984;2022-10-16T13:21:36;4.45;;;1.63;;
9370;SDS011;4725;48.384;8.984;2022-10-16T13:24:19;2.00;;;1.63;;
9370;SDS011;4725;48.384;8.984;2022-10-16T13:26:59;1.52;;;1.35;;
9370;SDS011;4725;48.384;8.984;2022-10-16T13:29:33;1.67;;;1.58;;
9370;SDS011;4725;48.384;8.984;2022-10-16T13:32:06;2.13;;;1.40;;
9370;SDS011;4725;48.384;8.984;2022-10-16T13:34:43;2.03;;;1.60;;
9370;SDS011;4725;48.384;8.984;2022-10-16T13:37:16;5.55;;;2.13;;
9370;SDS011;4725;48.384;8.984;2022-10-16T13:39:44;1.73;;;1.50;;
9370;SDS011;4725;48.384;8.984;2022-10-16T13:42:14;4.65;;;1.33;;
9370;SDS011;4725;48.384;8.984;2022-10-16T13:44:48;2.60;;;1.40;;
9370;SDS011;4725;48.384;8.984;2022-10-16T13:47:18;1.95;;;1.33;;
9370;SDS011;4725;48.384;8.984;2022-10-16T13:49:58;1.60;;;1.50;;
9370;SDS011;4725;48.384;8.984;2022-10-16T13:52:26;2.38;;;1.80;;
9370;SDS011;4725;48.384;8.984;2022-10-16T13:54:53;3.78;;;1.63;;
9370;SDS011;4725;48.384;8.984;2022-10-16T13:57:21;1.65;;;1.40;;
9370;SDS011;4725;48.384;8.984;2022-10-16T13:59:49;1.77;;;1.38;;
9370;SDS011;4725;48.384;8.984;2022-10-16T14:02:18;2.22;;;1.80;;
9370;SDS011;4725;48.384;8.984;2022-10-16T14:04:49;2.13;;;1.80;;
9370;SDS011;4725;48.384;8.984;2022-10-16T14:07:18;3.28;;;1.20;;
9370;SDS011;4725;48.384;8.984;2022-10-16T14:09:49;2.25;;;1.70;;
9370;SDS011;4725;48.384;8.984;2022-10-16T14:12:17;2.55;;;1.52;;
9370;SDS011;4725;48.384;8.984;2022-10-16T14:14:45;4.28;;;2.33;;
9370;SDS011;4725;48.384;8.984;2022-10-16T14:17:13;6.78;;;4.05;;
9370;SDS011;4725;48.384;8.984;2022-10-16T14:19:40;7.40;;;3.38;;
9370;SDS011;4725;48.384;8.984;2022-10-16T14:22:21;3.95;;;3.13;;
9370;SDS011;4725;48.384;8.984;2022-10-16T14:24:55;5.60;;;4.03;;
9370;SDS011;4725;48.384;8.984;2022-10-16T14:27:28;6.18;;;3.15;;
9370;SDS011;4725;48.384;8.984;2022-10-16T14:30:08;9.60;;;3.70;;
9370;SDS011;4725;48.384;8.984;2022-10-16T14:32:40;4.15;;;3.35;;
9370;SDS011;4725;48.384;8.984;2022-10-16T14:35:21;3.97;;;3.10;;
9370;SDS011;4725;48.384;8.984;2022-10-16T14:37:52;4.07;;;2.25;;
9370;SDS011;4725;48.384;8.984;2022-10-16T14:40:20;4.18;;;3.20;;
9370;SDS011;4725;48.384;8.984;2022-10-16T14:42:50;5.78;;;2.25;;
9370;SDS011;4725;48.384;8.984;2022-10-16T14:45:18;5.30;;;4.53;;
9370;SDS011;4725;48.384;8.984;2022-10-16T14:47:48;2.92;;;2.00;;
9370;SDS011;4725;48.384;8.984;2022-10-16T14:50:16;3.80;;;2.28;;
9370;SDS011;4725;48.384;8.984;2022-10-16T14:52:43;2.45;;;1.70;;
9370;SDS011;4725;48.384;8.984;2022-10-16T14:55:11;2.50;;;2.30;;
9370;SDS011;4725;48.384;8.984;2022-10-16T14:57:38;3.97;;;2.25;;
9370;SDS011;4725;48.384;8.984;2022-10-16T15:00:14;2.20;;;2.00;;
9370;SDS011;4725;48.384;8.984;2022-10-16T15:02:43;4.03;;;2.08;;
9370;SDS011;4725;48.384;8.984;2022-10-16T15:05:12;3.97;;;2.35;;
9370;SDS011;4725;48.384;8.984;2022-10-16T15:07:41;5.07;;;2.85;;
9370;SDS011;4725;48.384;8.984;2022-10-16T15:10:08;15.35;;;6.93;;
9370;SDS011;4725;48.384;8.984;2022-10-16T15:12:36;10.07;;;4.40;;
9370;SDS011;4725;48.384;8.984;2022-10-16T15:15:11;8.95;;;5.90;;
9370;SDS011;4725;48.384;8.984;2022-10-16T15:17:49;11.20;;;3.42;;
9370;SDS011;4725;48.384;8.984;2022-10-16T15:20:18;3.55;;;2.72;;
9370;SDS011;4725;48.384;8.984;2022-10-16T15:22:45;3.85;;;2.25;;
9370;SDS011;4725;48.384;8.984;2022-10-16T15:25:15;3.22;;;2.45;;
9370;SDS011;4725;48.384;8.984;2022-10-16T15:28:00;6.47;;;2.25;;
9370;SDS011;4725;48.384;8.984;2022-10-16T15:30:29;3.10;;;2.10;;
9370;SDS011;4725;48.384;8.984;2022-10-16T15:32:56;2.13;;;1.88;;
9370;SDS011;4725;48.384;8.984;2022-10-16T15:35:23;4.82;;;1.92;;
9370;SDS011;4725;48.384;8.984;2022-10-16T15:37:50;6.15;;;1.92;;
9370;SDS011;4725;48.384;8.984;2022-10-16T15:40:17;5.75;;;2.00;;
9370;SDS011;4725;48.384;8.984;2022-10-16T15:42:45;9.98;;;2.58;;
9370;SDS011;4725;48.384;8.984;2022-10-16T15:45:14;9.35;;;2.08;;
9370;SDS011;4725;48.384;8.984;2022-10-16T15:47:42;4.35;;;1.75;;
9370;SDS011;4725;48.384;8.984;2022-10-16T15:50:10;1.88;;;1.55;;
9370;SDS011;4725;48.384;8.984;2022-10-16T15:52:37;2.35;;;1.85;;